Chester, Idaho
Current Conditions -  °F | °C
As of 2:53 AM on Monday 20 Oct 2014 (Local Time) from KRXE Reporting Station
Clear Clear  
Wind Chill: 35°   Ceiling: Unl
Heat Index: 35°   Visibility: 10mi
Dew Point: 30°   Wind: 3mph
Humidity: 82%   Direction: 40°NE
Pressure: 30.08"   Gusts: NA
Location:  44°N, 111.57°W
Report Text: KRXE 200853Z AUTO 04003KT 10SM CLR 02/M01 A3008 RMK AO2 SLP172 T00171011 55000
Loading
Personal Weather Stations






























Interactive Weather Map
Tropical Storm Tracking
New forecast layout! Learn more

10-Day Weather Forecast

Advertisements
Track Severe Weather on mobile